createdAt,value
2023-04-06T00:01:22.139Z,-2.60
2023-04-06T00:03:49.722Z,-2.40
2023-04-06T00:06:17.467Z,-2.40
2023-04-06T00:08:45.724Z,-2.40
2023-04-06T00:11:13.027Z,-2.40
2023-04-06T00:13:40.478Z,-2.50
2023-04-06T00:16:07.935Z,-2.60
2023-04-06T00:18:35.455Z,-2.60
2023-04-06T00:21:02.790Z,-2.50
2023-04-06T00:23:30.456Z,-2.60
2023-04-06T00:25:58.143Z,-2.60
2023-04-06T00:28:27.375Z,-2.60
2023-04-06T00:30:56.411Z,-2.70
2023-04-06T00:33:24.641Z,-2.70
2023-04-06T00:35:52.425Z,-2.60
2023-04-06T00:38:19.840Z,-2.70
2023-04-06T00:40:47.374Z,-2.70
2023-04-06T00:43:15.388Z,-2.70
2023-04-06T00:45:43.801Z,-2.70
2023-04-06T00:48:11.208Z,-2.70
2023-04-06T00:50:38.518Z,-2.70
2023-04-06T00:53:06.182Z,-2.60
2023-04-06T00:55:33.509Z,-2.60
2023-04-06T00:58:05.053Z,-2.70
2023-04-06T01:00:33.379Z,-2.70
2023-04-06T01:03:00.821Z,-2.70
2023-04-06T01:05:28.450Z,-2.80
2023-04-06T01:07:55.875Z,-2.80
2023-04-06T01:10:27.371Z,-2.80
2023-04-06T01:12:54.704Z,-2.80
2023-04-06T01:15:22.917Z,-2.90
2023-04-06T01:17:50.613Z,-2.90
2023-04-06T01:20:18.041Z,-2.90
2023-04-06T01:22:45.407Z,-3.00
2023-04-06T01:25:12.967Z,-3.10
2023-04-06T01:27:40.371Z,-3.00
2023-04-06T01:30:08.418Z,-2.90
2023-04-06T01:32:35.817Z,-2.90
2023-04-06T01:35:03.197Z,-2.70
2023-04-06T01:37:33.194Z,-2.80
2023-04-06T01:40:01.454Z,-2.90
2023-04-06T01:42:29.166Z,-2.90
2023-04-06T01:44:56.470Z,-3.10
2023-04-06T01:47:23.837Z,-3.10
2023-04-06T01:49:51.234Z,-3.20
2023-04-06T01:52:18.752Z,-3.10
2023-04-06T01:54:46.130Z,-3.10
2023-04-06T01:57:13.391Z,-3.10
2023-04-06T01:59:40.737Z,-3.10
2023-04-06T02:02:08.195Z,-3.00
2023-04-06T02:04:35.568Z,-3.10
2023-04-06T02:07:02.804Z,-3.10
2023-04-06T02:09:30.124Z,-3.10
2023-04-06T02:11:57.719Z,-3.10
2023-04-06T02:14:27.018Z,-3.10
2023-04-06T02:16:54.539Z,-3.40
2023-04-06T02:19:22.139Z,-3.50
2023-04-06T02:21:49.532Z,-3.40
2023-04-06T02:24:17.234Z,-3.40
2023-04-06T02:26:44.578Z,-3.40
2023-04-06T02:29:11.999Z,-3.40
2023-04-06T02:31:39.411Z,-3.40
2023-04-06T02:34:06.735Z,-3.50
2023-04-06T02:36:34.078Z,-3.50
2023-04-06T02:39:01.393Z,-3.50
2023-04-06T02:41:28.639Z,-3.60
2023-04-06T02:43:56.051Z,-3.60
2023-04-06T02:46:23.486Z,-3.60
2023-04-06T02:48:50.972Z,-3.50
2023-04-06T02:51:18.398Z,-3.60
2023-04-06T02:53:45.679Z,-3.60
2023-04-06T02:56:12.937Z,-3.50
2023-04-06T02:58:40.494Z,-3.50
2023-04-06T03:01:07.813Z,-3.30
2023-04-06T03:03:35.229Z,-3.10
2023-04-06T03:06:02.591Z,-3.00
2023-04-06T03:08:30.077Z,-3.20
2023-04-06T03:10:57.357Z,-3.30
2023-04-06T03:13:24.803Z,-3.40
2023-04-06T03:15:52.183Z,-3.40
2023-04-06T03:18:24.084Z,-3.30
2023-04-06T03:20:52.119Z,-3.30
2023-04-06T03:23:21.807Z,-3.30
2023-04-06T03:25:49.115Z,-3.10
2023-04-06T03:28:17.178Z,-3.10
2023-04-06T03:30:44.554Z,-3.20
2023-04-06T03:33:11.848Z,-3.40
2023-04-06T03:35:39.241Z,-3.50
2023-04-06T03:38:07.899Z,-3.50
2023-04-06T03:40:35.215Z,-3.60
2023-04-06T03:43:02.791Z,-3.60
2023-04-06T03:45:30.397Z,-3.60
2023-04-06T03:47:57.766Z,-3.80
2023-04-06T03:50:25.148Z,-3.70
2023-04-06T03:52:52.366Z,-3.70
2023-04-06T03:55:19.715Z,-3.70
2023-04-06T03:57:47.002Z,-3.80
2023-04-06T04:00:14.891Z,-3.70
2023-04-06T04:02:42.249Z,-3.80
2023-04-06T04:05:10.056Z,-3.90
2023-04-06T04:07:37.443Z,-4.00
2023-04-06T04:10:05.401Z,-3.90
2023-04-06T04:12:32.738Z,-3.90
2023-04-06T04:15:00.045Z,-4.00
2023-04-06T04:17:27.370Z,-4.00
2023-04-06T04:19:54.630Z,-4.10
2023-04-06T04:22:21.899Z,-4.00
2023-04-06T04:24:49.124Z,-4.00
2023-04-06T04:27:16.386Z,-4.00
2023-04-06T04:29:44.835Z,-4.00
2023-04-06T04:32:12.619Z,-4.00
2023-04-06T04:34:41.422Z,-4.00
2023-04-06T04:37:08.718Z,-3.90
2023-04-06T04:39:36.167Z,-3.90
2023-04-06T04:42:03.495Z,-3.70
2023-04-06T04:44:30.858Z,-3.70
2023-04-06T04:46:58.220Z,-3.80
2023-04-06T04:49:25.688Z,-3.80
2023-04-06T04:51:53.739Z,-3.90
2023-04-06T04:54:21.139Z,-3.80
2023-04-06T04:56:48.392Z,-3.90
2023-04-06T04:59:15.799Z,-3.90
2023-04-06T05:01:54.165Z,-3.90
2023-04-06T05:04:24.242Z,-3.70
2023-04-06T05:06:51.595Z,-3.70
2023-04-06T05:09:18.897Z,-3.50
2023-04-06T05:11:46.205Z,-3.50
2023-04-06T05:14:13.579Z,-3.40
2023-04-06T05:16:40.909Z,-3.20
2023-04-06T05:19:08.497Z,-3.20
2023-04-06T05:21:36.075Z,-3.10
2023-04-06T05:24:03.688Z,-3.10
2023-04-06T05:26:31.419Z,-3.00
2023-04-06T05:28:58.789Z,-3.00
2023-04-06T05:31:26.142Z,-3.00
2023-04-06T05:33:53.642Z,-2.90
2023-04-06T05:36:21.315Z,-2.80
2023-04-06T05:38:48.840Z,-2.70
2023-04-06T05:41:16.298Z,-2.60
2023-04-06T05:43:43.677Z,-2.50
2023-04-06T05:46:11.425Z,-2.50
2023-04-06T05:48:38.769Z,-2.40
2023-04-06T05:51:07.331Z,-2.30
2023-04-06T05:53:34.641Z,-2.20
2023-04-06T05:56:05.526Z,-2.10
2023-04-06T05:58:33.453Z,-1.90
2023-04-06T06:01:01.599Z,-1.80
2023-04-06T06:03:28.949Z,-1.70
2023-04-06T06:06:01.678Z,-1.50
2023-04-06T06:08:29.308Z,-1.30
2023-04-06T06:10:56.982Z,-1.20
2023-04-06T06:13:25.096Z,-1.00
2023-04-06T06:15:52.840Z,-0.80
2023-04-06T06:18:20.429Z,-0.70
2023-04-06T06:20:47.717Z,-0.60
2023-04-06T06:23:15.929Z,-0.50
2023-04-06T06:25:43.229Z,-0.40
2023-04-06T06:28:10.489Z,-0.30
2023-04-06T06:30:37.812Z,-0.10
2023-04-06T06:33:05.145Z,0.00
2023-04-06T06:35:32.512Z,0.00
2023-04-06T06:37:59.787Z,0.20
2023-04-06T06:40:28.160Z,0.40
2023-04-06T06:42:55.685Z,0.40
2023-04-06T06:45:23.202Z,0.50
2023-04-06T06:47:52.924Z,0.60
2023-04-06T06:50:21.869Z,0.70
2023-04-06T06:52:49.153Z,0.90
2023-04-06T06:55:16.587Z,1.00
2023-04-06T06:57:44.271Z,1.30
2023-04-06T07:00:13.286Z,1.30
2023-04-06T07:02:41.106Z,1.40
2023-04-06T07:05:23.898Z,1.60
2023-04-06T07:07:55.639Z,1.60
2023-04-06T07:10:23.188Z,1.80
2023-04-06T07:12:50.412Z,2.00
2023-04-06T07:15:18.592Z,2.00
2023-04-06T07:17:46.496Z,2.10
2023-04-06T07:20:14.671Z,2.20
2023-04-06T07:22:44.553Z,2.40
2023-04-06T07:25:11.907Z,2.50
2023-04-06T07:27:39.474Z,2.60
2023-04-06T07:30:07.746Z,2.80
2023-04-06T07:32:36.878Z,2.90
2023-04-06T07:35:05.504Z,3.00
2023-04-06T07:37:32.799Z,3.00
2023-04-06T07:40:00.183Z,3.30
2023-04-06T07:42:27.514Z,3.30
2023-04-06T07:44:54.782Z,3.40
2023-04-06T07:47:22.234Z,3.60
2023-04-06T07:49:49.586Z,3.80
2023-04-06T07:52:17.112Z,3.90
2023-04-06T07:54:45.217Z,4.00
2023-04-06T07:57:12.573Z,4.10
2023-04-06T07:59:39.992Z,4.30
2023-04-06T08:02:07.585Z,4.50
2023-04-06T08:04:35.000Z,4.60
2023-04-06T08:07:02.396Z,4.90
2023-04-06T08:09:29.668Z,5.00
2023-04-06T08:11:56.994Z,5.10
2023-04-06T08:14:24.276Z,5.20
2023-04-06T08:16:51.657Z,5.40
2023-04-06T08:19:19.952Z,5.50
2023-04-06T08:21:48.231Z,5.50
2023-04-06T08:24:16.299Z,5.40
2023-04-06T08:26:43.747Z,5.50
2023-04-06T08:29:11.154Z,5.70
2023-04-06T08:31:38.552Z,5.90
2023-04-06T08:34:10.887Z,6.00
2023-04-06T08:36:40.540Z,6.00
2023-04-06T08:39:07.923Z,5.80
2023-04-06T08:41:35.912Z,6.00
2023-04-06T08:44:03.941Z,6.00
2023-04-06T08:46:31.977Z,6.10
2023-04-06T08:49:01.568Z,6.40
2023-04-06T08:51:31.457Z,6.50
2023-04-06T08:54:00.465Z,6.40
2023-04-06T08:56:29.307Z,6.40
2023-04-06T08:58:57.254Z,6.50
2023-04-06T09:01:29.311Z,6.40
2023-04-06T09:04:01.779Z,6.40
2023-04-06T09:06:29.400Z,6.50
2023-04-06T09:08:57.681Z,6.70
2023-04-06T09:11:25.214Z,6.90
2023-04-06T09:13:55.857Z,6.80
2023-04-06T09:16:24.301Z,6.90
2023-04-06T09:18:51.717Z,7.00
2023-04-06T09:21:22.624Z,7.20
2023-04-06T09:24:02.212Z,7.10
2023-04-06T09:26:29.913Z,7.10
2023-04-06T09:29:01.336Z,7.20
2023-04-06T09:31:31.218Z,7.70
2023-04-06T09:33:58.978Z,7.50
2023-04-06T09:36:34.090Z,7.60
2023-04-06T09:39:06.018Z,7.60
2023-04-06T09:41:37.692Z,7.70
2023-04-06T09:44:10.306Z,7.90
2023-04-06T09:46:55.095Z,7.90
2023-04-06T09:49:29.143Z,7.90
2023-04-06T09:52:05.127Z,7.90
2023-04-06T09:54:33.304Z,8.10
2023-04-06T09:57:33.107Z,8.00
2023-04-06T10:00:10.906Z,8.20
2023-04-06T10:02:50.317Z,8.30
2023-04-06T10:05:20.622Z,8.40
2023-04-06T10:10:24.664Z,8.20
2023-04-06T10:12:52.192Z,8.30
2023-04-06T10:15:22.439Z,8.60
2023-04-06T10:17:50.546Z,8.70
2023-04-06T10:20:46.089Z,8.50
2023-04-06T10:23:35.981Z,8.60
2023-04-06T10:26:04.328Z,8.50
2023-04-06T10:28:37.970Z,8.50
2023-04-06T10:31:08.676Z,8.50
2023-04-06T10:33:36.334Z,8.80
2023-04-06T10:36:22.793Z,8.70
2023-04-06T10:39:01.903Z,8.70
2023-04-06T10:41:44.016Z,8.90
2023-04-06T10:44:21.719Z,8.60
2023-04-06T10:46:57.788Z,8.80
2023-04-06T10:49:27.775Z,9.10
2023-04-06T10:51:56.509Z,9.00
2023-04-06T10:54:26.803Z,9.10
2023-04-06T10:56:54.157Z,9.30
2023-04-06T10:59:22.829Z,9.50
2023-04-06T11:01:50.738Z,9.10
2023-04-06T11:04:19.596Z,9.00
2023-04-06T11:06:51.246Z,9.50
2023-04-06T11:09:29.384Z,9.30
2023-04-06T11:11:57.966Z,9.60
2023-04-06T11:14:27.633Z,9.30
2023-04-06T11:16:55.329Z,9.10
2023-04-06T11:19:22.740Z,9.10
2023-04-06T11:21:50.566Z,9.20
2023-04-06T11:24:22.955Z,9.20
2023-04-06T11:26:56.052Z,9.50
2023-04-06T11:29:31.900Z,9.70
2023-04-06T11:32:07.439Z,9.60
2023-04-06T11:34:39.720Z,9.60
2023-04-06T11:37:13.132Z,9.80
2023-04-06T11:39:41.740Z,9.70
2023-04-06T11:42:09.594Z,9.70
2023-04-06T11:44:43.823Z,10.10
2023-04-06T11:47:12.319Z,9.90
2023-04-06T11:49:42.540Z,9.90
2023-04-06T11:52:25.543Z,9.90
2023-04-06T11:54:54.704Z,9.60
2023-04-06T11:57:26.493Z,10.10
2023-04-06T11:59:54.126Z,9.90
2023-04-06T12:02:21.665Z,9.70
2023-04-06T12:04:49.395Z,9.90
2023-04-06T12:07:16.845Z,10.00
2023-04-06T12:09:44.538Z,9.90
2023-04-06T12:12:12.015Z,9.80
2023-04-06T12:14:39.394Z,9.90
2023-04-06T12:17:06.717Z,9.80
2023-04-06T12:19:34.048Z,9.70
2023-04-06T12:22:01.298Z,9.90
2023-04-06T12:24:29.877Z,9.90
2023-04-06T12:27:08.691Z,9.70
2023-04-06T12:29:37.862Z,9.90
2023-04-06T12:32:05.926Z,10.20
2023-04-06T12:34:33.307Z,10.00
2023-04-06T12:37:00.843Z,9.90
2023-04-06T12:39:31.331Z,10.00
2023-04-06T12:41:58.757Z,9.90
2023-04-06T12:44:27.060Z,10.00
2023-04-06T12:46:54.853Z,10.30
2023-04-06T12:49:23.033Z,10.30
2023-04-06T12:51:51.339Z,10.40
2023-04-06T12:54:18.852Z,10.20
2023-04-06T12:56:46.716Z,10.20
2023-04-06T12:59:14.358Z,10.30
2023-04-06T13:01:41.876Z,10.30
2023-04-06T13:04:09.185Z,10.40
2023-04-06T13:06:36.488Z,10.40
2023-04-06T13:09:05.325Z,10.40
2023-04-06T13:11:32.834Z,10.60
2023-04-06T13:14:00.280Z,11.00
2023-04-06T13:16:27.648Z,10.60
2023-04-06T13:18:54.980Z,10.60
2023-04-06T13:21:22.264Z,10.70
2023-04-06T13:23:49.553Z,10.50
2023-04-06T13:26:17.805Z,10.50
2023-04-06T13:28:45.165Z,10.70
2023-04-06T13:31:12.564Z,10.60
2023-04-06T13:33:41.912Z,10.50
2023-04-06T13:36:09.414Z,10.70
2023-04-06T13:38:39.874Z,10.70
2023-04-06T13:41:07.584Z,10.70
2023-04-06T13:43:34.918Z,10.80
2023-04-06T13:46:02.534Z,10.70
2023-04-06T13:48:30.017Z,10.70
2023-04-06T13:50:58.812Z,10.70
2023-04-06T13:53:26.018Z,10.60
2023-04-06T13:55:56.833Z,10.70
2023-04-06T13:58:24.563Z,10.60
2023-04-06T14:00:52.176Z,10.60
2023-04-06T14:03:20.113Z,10.70
2023-04-06T14:05:47.719Z,10.60
2023-04-06T14:08:15.031Z,10.70
2023-04-06T14:10:43.463Z,10.80
2023-04-06T14:13:11.537Z,10.80
2023-04-06T14:15:39.134Z,10.60
2023-04-06T14:18:07.088Z,10.60
2023-04-06T14:20:34.836Z,10.40
2023-04-06T14:23:02.951Z,10.60
2023-04-06T14:25:35.529Z,10.80
2023-04-06T14:28:03.527Z,11.00
2023-04-06T14:30:34.047Z,11.20
2023-04-06T14:33:01.370Z,11.10
2023-04-06T14:35:29.366Z,11.30
2023-04-06T14:38:02.492Z,11.30
2023-04-06T14:40:29.871Z,11.30
2023-04-06T14:42:57.596Z,10.90
2023-04-06T14:45:24.944Z,11.10
2023-04-06T14:47:52.488Z,11.10
2023-04-06T14:50:19.783Z,11.30
2023-04-06T14:52:47.922Z,11.30
2023-04-06T14:55:15.367Z,11.40
2023-04-06T14:57:42.596Z,10.80
2023-04-06T15:00:11.142Z,10.70
2023-04-06T15:02:38.961Z,10.80
2023-04-06T15:05:07.094Z,10.80
2023-04-06T15:07:34.366Z,10.80
2023-04-06T15:10:01.722Z,11.00
2023-04-06T15:12:30.573Z,11.10
2023-04-06T15:14:57.875Z,11.00
2023-04-06T15:17:27.405Z,10.80
2023-04-06T15:19:55.412Z,10.80
2023-04-06T15:22:22.617Z,11.00
2023-04-06T15:24:50.142Z,10.90
2023-04-06T15:27:17.411Z,10.80
2023-04-06T15:29:44.874Z,10.50
2023-04-06T15:32:13.403Z,10.50
2023-04-06T15:34:40.921Z,10.60
2023-04-06T15:37:08.981Z,10.40
2023-04-06T15:39:37.888Z,10.40
2023-04-06T15:42:05.380Z,10.70
2023-04-06T15:44:34.326Z,10.60
2023-04-06T15:47:01.719Z,10.50
2023-04-06T15:49:29.110Z,10.50
2023-04-06T15:51:56.708Z,10.40
2023-04-06T15:54:24.074Z,10.20
2023-04-06T15:56:51.339Z,10.20
2023-04-06T15:59:18.594Z,10.10
2023-04-06T16:01:48.955Z,10.10
2023-04-06T16:04:16.416Z,10.10
2023-04-06T16:06:43.710Z,10.30
2023-04-06T16:09:11.159Z,10.70
2023-04-06T16:11:38.575Z,11.40
2023-04-06T16:14:06.052Z,11.80
2023-04-06T16:16:33.369Z,11.90
2023-04-06T16:19:00.680Z,12.10
2023-04-06T16:21:28.798Z,12.30
2023-04-06T16:23:57.988Z,12.40
2023-04-06T16:26:27.280Z,12.50
2023-04-06T16:28:54.837Z,12.00
2023-04-06T16:31:24.531Z,12.20
2023-04-06T16:33:57.309Z,12.30
2023-04-06T16:36:27.552Z,12.70
2023-04-06T16:38:59.629Z,12.50
2023-04-06T16:41:29.554Z,12.80
2023-04-06T16:43:57.559Z,13.30
2023-04-06T16:46:35.848Z,12.90
2023-04-06T16:49:04.438Z,12.00
2023-04-06T16:51:32.428Z,11.90
2023-04-06T16:54:00.022Z,11.10
2023-04-06T16:56:27.562Z,10.40
2023-04-06T16:58:54.919Z,9.70
2023-04-06T17:01:26.962Z,9.40
2023-04-06T17:03:56.225Z,9.20
2023-04-06T17:06:23.711Z,8.90
2023-04-06T17:08:51.414Z,8.70
2023-04-06T17:11:27.746Z,8.60
2023-04-06T17:13:56.288Z,8.50
2023-04-06T17:16:23.494Z,8.50
2023-04-06T17:18:50.818Z,8.40
2023-04-06T17:21:20.600Z,8.30
2023-04-06T17:23:48.498Z,8.20
2023-04-06T17:26:16.193Z,8.10
2023-04-06T17:28:43.520Z,7.90
2023-04-06T17:31:12.470Z,7.80
2023-04-06T17:33:40.916Z,7.50
2023-04-06T17:36:12.517Z,7.40
2023-04-06T17:38:44.025Z,7.10
2023-04-06T17:41:12.672Z,7.00
2023-04-06T17:43:40.392Z,6.70
2023-04-06T17:46:08.018Z,6.60
2023-04-06T17:48:36.404Z,6.50
2023-04-06T17:51:03.909Z,6.40
2023-04-06T17:53:32.701Z,6.30
2023-04-06T17:56:06.469Z,6.20
2023-04-06T17:58:33.983Z,6.10
2023-04-06T18:01:08.444Z,6.00
2023-04-06T18:03:37.388Z,5.90
2023-04-06T18:06:16.204Z,5.80
2023-04-06T18:08:43.817Z,5.70
2023-04-06T18:11:18.612Z,5.60
2023-04-06T18:13:46.288Z,5.60
2023-04-06T18:16:14.459Z,5.40
2023-04-06T18:18:41.886Z,5.30
2023-04-06T18:21:09.108Z,5.20
2023-04-06T18:23:37.716Z,5.10
2023-04-06T18:26:06.373Z,5.00
2023-04-06T18:28:34.173Z,4.80
2023-04-06T18:31:02.432Z,4.70
2023-04-06T18:33:30.173Z,4.70
2023-04-06T18:35:57.520Z,4.60
2023-04-06T18:38:24.805Z,4.50
2023-04-06T18:40:52.198Z,4.40
2023-04-06T18:43:19.375Z,4.30
2023-04-06T18:45:46.815Z,4.20
2023-04-06T18:48:17.253Z,4.10
2023-04-06T18:50:55.298Z,4.10
2023-04-06T18:53:22.735Z,4.10
2023-04-06T18:55:51.131Z,4.00
2023-04-06T18:58:18.353Z,4.10
2023-04-06T19:00:45.829Z,4.10
2023-04-06T19:03:13.427Z,3.90
2023-04-06T19:05:41.923Z,3.90
2023-04-06T19:08:09.707Z,3.70
2023-04-06T19:10:38.617Z,3.60
2023-04-06T19:13:06.209Z,3.50
2023-04-06T19:15:33.611Z,3.30
2023-04-06T19:18:01.440Z,3.20
2023-04-06T19:20:33.942Z,3.10
2023-04-06T19:23:03.091Z,3.20
2023-04-06T19:25:30.450Z,3.10
2023-04-06T19:27:57.778Z,3.00
2023-04-06T19:30:24.974Z,3.00
2023-04-06T19:32:52.971Z,2.90
2023-04-06T19:35:20.441Z,2.90
2023-04-06T19:37:47.708Z,2.90
2023-04-06T19:40:14.948Z,2.90
2023-04-06T19:42:42.203Z,3.00
2023-04-06T19:45:09.599Z,3.10
2023-04-06T19:47:36.938Z,3.10
2023-04-06T19:50:05.617Z,3.00
2023-04-06T19:52:33.247Z,2.80
2023-04-06T19:55:00.802Z,2.60
2023-04-06T19:57:28.156Z,2.50
2023-04-06T19:59:55.937Z,2.50
2023-04-06T20:02:23.387Z,2.50
2023-04-06T20:04:50.927Z,2.40
2023-04-06T20:07:18.268Z,2.30
2023-04-06T20:09:45.648Z,2.30
2023-04-06T20:12:12.862Z,2.10
2023-04-06T20:14:40.066Z,2.00
2023-04-06T20:17:07.435Z,1.90
2023-04-06T20:19:34.804Z,1.70
2023-04-06T20:22:03.791Z,1.80
2023-04-06T20:24:31.548Z,1.80
2023-04-06T20:26:59.543Z,1.80
2023-04-06T20:29:27.391Z,1.80
2023-04-06T20:31:54.739Z,1.70
2023-04-06T20:34:24.403Z,1.90
2023-04-06T20:36:51.726Z,1.90
2023-04-06T20:39:18.954Z,1.90
2023-04-06T20:41:46.285Z,1.80
2023-04-06T20:44:13.523Z,1.70
2023-04-06T20:46:41.063Z,1.90
2023-04-06T20:49:08.399Z,2.00
2023-04-06T20:51:35.732Z,1.80
2023-04-06T20:54:02.970Z,1.80
2023-04-06T20:56:30.416Z,1.60
2023-04-06T20:58:58.604Z,1.60
2023-04-06T21:01:26.162Z,1.50
2023-04-06T21:03:53.702Z,1.50
2023-04-06T21:06:21.703Z,1.50
2023-04-06T21:08:48.932Z,1.40
2023-04-06T21:11:16.333Z,1.40
2023-04-06T21:13:43.607Z,1.50
2023-04-06T21:16:11.456Z,1.40
2023-04-06T21:18:39.549Z,1.30
2023-04-06T21:21:06.871Z,1.40
2023-04-06T21:23:34.277Z,1.40
2023-04-06T21:26:02.221Z,1.40
2023-04-06T21:28:29.458Z,1.20
2023-04-06T21:30:56.804Z,1.10
2023-04-06T21:33:24.077Z,1.10
2023-04-06T21:35:51.426Z,1.00
2023-04-06T21:38:18.644Z,1.00
2023-04-06T21:40:53.634Z,1.00
2023-04-06T21:43:20.894Z,1.10
2023-04-06T21:45:51.367Z,1.00
2023-04-06T21:48:18.987Z,1.10
2023-04-06T21:50:46.326Z,1.30
2023-04-06T21:53:13.613Z,1.30
2023-04-06T21:55:45.092Z,1.10
2023-04-06T21:58:13.286Z,0.90
2023-04-06T22:00:40.913Z,1.00
2023-04-06T22:03:08.520Z,1.00
2023-04-06T22:05:40.089Z,1.00
2023-04-06T22:08:08.304Z,1.00
2023-04-06T22:10:39.782Z,0.80
2023-04-06T22:13:07.206Z,0.80
2023-04-06T22:15:34.643Z,0.60
2023-04-06T22:18:01.892Z,0.50
2023-04-06T22:20:29.183Z,0.50
2023-04-06T22:22:56.481Z,0.60
2023-04-06T22:25:23.701Z,0.80
2023-04-06T22:27:50.960Z,0.90
2023-04-06T22:30:18.235Z,0.90
2023-04-06T22:32:45.610Z,0.80
2023-04-06T22:35:12.856Z,0.60
2023-04-06T22:37:43.845Z,0.50
2023-04-06T22:40:11.996Z,0.70
2023-04-06T22:42:39.342Z,0.60
2023-04-06T22:45:07.111Z,0.80
2023-04-06T22:47:34.497Z,0.80
2023-04-06T22:50:02.294Z,0.70
2023-04-06T22:52:29.615Z,0.60
2023-04-06T22:54:56.867Z,0.50
2023-04-06T22:57:24.137Z,0.50
2023-04-06T22:59:51.714Z,0.30
2023-04-06T23:02:19.036Z,0.30
2023-04-06T23:04:46.569Z,0.40
2023-04-06T23:07:15.491Z,0.30
2023-04-06T23:09:44.325Z,0.50
2023-04-06T23:12:12.155Z,0.40
2023-04-06T23:14:39.335Z,0.20
2023-04-06T23:17:06.867Z,0.20
2023-04-06T23:19:34.306Z,0.00
2023-04-06T23:22:02.022Z,0.20
2023-04-06T23:24:29.300Z,0.10
2023-04-06T23:26:56.520Z,0.10
2023-04-06T23:29:24.014Z,0.10
2023-04-06T23:31:51.379Z,0.10
2023-04-06T23:34:18.712Z,0.30
2023-04-06T23:36:45.954Z,0.40
2023-04-06T23:39:13.269Z,0.50
2023-04-06T23:41:40.583Z,0.50
2023-04-06T23:44:07.855Z,0.50
2023-04-06T23:46:35.125Z,0.20
2023-04-06T23:49:02.350Z,0.00
2023-04-06T23:51:29.588Z,0.10
2023-04-06T23:53:58.014Z,0.20
2023-04-06T23:56:25.395Z,0.10
2023-04-06T23:58:52.593Z,0.20
